Terminal Aerodrome Forecast
Issued by NWS

Home | Current Version | Previous Version | Text Only | Print | Product List | Glossary On
Versions: 1 2 3 4 5 6 7 8 9 10 11 12 13 14 15
000
FTUS42 KJAX 010500
TAFCRG
TAF
KCRG 010525Z 0106/0206 12003KT P6SM VCSH SCT030 SCT070 SCT250
     FM011500 27005KT P6SM FEW030 SCT250
     FM011800 11008KT P6SM VCTS SCT040CB BKN250
     FM020200 16003KT P6SM SCT050 SCT250=

USA.gov is the U.S. government's official web portal to all federal, state and local government web resources and services.